Time;durP1;ratioP1;P1;durP2;ratioP2;P2;SDS_P1;SDS_P2;PMS_P1;PMS_P2;Temp;Humidity;BMP_temperature;BMP_pressure;BME280_temperature;BME280_humidity;BME280_pressure;Samples;Min_cycle;Max_cycle;Signal;HPM_P1;HPM_P2
2022/01/22 00:01:43;;;;;;;0.10;0.10;;;1.10;99.90;;;;;;5005084;28;20389;-86
2022/01/22 00:04:09;;;;;;;0.00;0.00;;;1.10;99.90;;;;;;5014277;28;20408;-75
2022/01/22 00:06:35;;;;;;;0.05;0.05;;;1.10;99.90;;;;;;5015547;28;20374;-86
2022/01/22 00:09:02;;;;;;;0.32;0.28;;;1.10;99.90;;;;;;5011295;28;20142;-75
2022/01/22 00:11:35;;;;;;;0.73;0.38;;;1.00;99.90;;;;;;5014968;28;20066;-75
2022/01/22 00:16:45;;;;;;;0.00;0.00;;;1.00;99.90;;;;;;5005819;28;20049;-75
2022/01/22 00:19:11;;;;;;;0.45;0.32;;;0.90;99.90;;;;;;5015670;28;20032;-87
2022/01/22 00:21:37;;;;;;;0.80;0.73;;;1.00;99.90;;;;;;5015604;28;20029;-88
2022/01/22 00:24:04;;;;;;;0.47;0.47;;;0.90;99.90;;;;;;5014466;28;20034;-87
2022/01/22 00:26:30;;;;;;;0.25;0.25;;;0.90;99.90;;;;;;5010600;28;20045;-88
2022/01/22 00:28:56;;;;;;;0.00;0.00;;;1.00;99.90;;;;;;5005258;28;20505;-87
2022/01/22 00:31:23;;;;;;;0.63;0.38;;;0.90;99.90;;;;;;5012074;28;20029;-75
2022/01/22 00:33:49;;;;;;;0.45;0.45;;;0.90;99.90;;;;;;5015627;28;20026;-87
2022/01/22 00:36:14;;;;;;;0.20;0.20;;;1.00;99.90;;;;;;5019290;28;20034;-75
2022/01/22 00:38:40;;;;;;;31.88;0.55;;;0.90;99.90;;;;;;5015507;28;20511;-87
2022/01/22 00:41:06;;;;;;;0.22;0.22;;;0.90;99.90;;;;;;5015061;28;20057;-87
2022/01/22 00:43:31;;;;;;;0.73;0.25;;;0.90;99.90;;;;;;5015171;28;20033;-75
2022/01/22 00:45:57;;;;;;;5.18;0.90;;;0.90;99.90;;;;;;5015839;28;20033;-75
2022/01/22 00:48:23;;;;;;;0.50;0.25;;;0.90;99.90;;;;;;5015194;28;20110;-86
2022/01/22 00:50:53;;;;;;;0.13;0.08;;;0.90;99.90;;;;;;5015060;28;20057;-75
2022/01/22 00:53:19;;;;;;;0.00;0.00;;;0.90;99.90;;;;;;5014816;28;20493;-87
2022/01/22 00:55:45;;;;;;;0.00;0.00;;;0.90;99.90;;;;;;5014339;28;20028;-87
2022/01/22 00:58:10;;;;;;;1.55;0.47;;;0.90;99.90;;;;;;5013555;28;20482;-75
2022/01/22 01:00:36;;;;;;;1.15;0.95;;;0.90;99.90;;;;;;5014541;28;20029;-76
2022/01/22 01:03:02;;;;;;;0.00;0.00;;;0.90;99.90;;;;;;5015560;28;20026;-75
2022/01/22 01:05:28;;;;;;;1.00;0.68;;;0.90;99.90;;;;;;5009717;28;20121;-75
2022/01/22 01:07:54;;;;;;;0.30;0.30;;;0.90;99.90;;;;;;5011297;28;20026;-87
2022/01/22 01:10:21;;;;;;;0.00;0.00;;;0.90;99.90;;;;;;5013209;28;20026;-87
2022/01/22 01:12:48;;;;;;;0.40;0.28;;;0.90;99.90;;;;;;5015543;28;20030;-75
2022/01/22 01:34:23;;;;;;;0.00;0.00;;;0.80;99.90;;;;;;5014063;28;20091;-87
2022/01/22 01:36:50;;;;;;;0.00;0.00;;;0.80;99.90;;;;;;5010392;28;20023;-75
2022/01/22 01:39:23;;;;;;;0.10;0.10;;;0.80;99.90;;;;;;5002524;28;20072;-87
2022/01/22 01:42:05;;;;;;;0.20;0.20;;;0.80;99.90;;;;;;5016024;28;20026;-75
2022/01/22 01:44:31;;;;;;;2.28;1.13;;;0.80;99.90;;;;;;5013066;28;20481;-75
2022/01/22 01:47:00;;;;;;;0.00;0.00;;;0.80;99.90;;;;;;5000939;28;20041;-75
2022/01/22 01:49:28;;;;;;;0.00;0.00;;;0.80;99.90;;;;;;5012954;28;20503;-75
2022/01/22 01:51:58;;;;;;;3.00;1.48;;;0.80;99.90;;;;;;5013188;28;20350;-87
2022/01/22 01:57:32;;;;;;;0.10;0.10;;;0.90;99.90;;;;;;4980849;28;20050;-75
2022/01/22 01:59:59;;;;;;;2.03;1.05;;;0.90;99.90;;;;;;5016222;28;20049;-86
2022/01/22 02:02:28;;;;;;;0.00;0.00;;;0.90;99.90;;;;;;5014337;28;20030;-88
2022/01/22 02:04:54;;;;;;;0.13;0.13;;;0.90;99.90;;;;;;5013451;28;20022;-88
2022/01/22 02:07:20;;;;;;;0.20;0.20;;;0.80;99.90;;;;;;5013580;28;20374;-87
2022/01/22 02:09:46;;;;;;;0.00;0.00;;;0.90;99.90;;;;;;5014098;28;20100;-75
2022/01/22 02:25:38;;;;;;;0.00;0.00;;;0.70;99.90;;;;;;4973003;28;20118;-87
2022/01/22 02:28:04;;;;;;;1.42;1.30;;;0.70;99.90;;;;;;4977844;28;20129;-87
2022/01/22 02:30:33;;;;;;;0.98;0.30;;;0.70;99.90;;;;;;5009364;28;20483;-85
2022/01/22 02:35:43;;;;;;;0.00;0.00;;;0.70;99.90;;;;;;5013778;28;20538;-75
2022/01/22 02:38:16;;;;;;;0.43;0.43;;;0.60;99.90;;;;;;5014641;28;20112;-75
2022/01/22 02:40:47;;;;;;;0.10;0.10;;;0.60;99.90;;;;;;5013802;28;20105;-87
2022/01/22 02:43:15;;;;;;;0.03;0.03;;;0.60;99.90;;;;;;5013247;28;20449;-87
2022/01/22 02:45:43;;;;;;;0.57;0.35;;;0.60;99.90;;;;;;5011485;28;20026;-75
2022/01/22 02:48:10;;;;;;;0.15;0.15;;;0.60;99.90;;;;;;5012163;28;20030;-75
2022/01/22 02:50:36;;;;;;;0.00;0.00;;;0.60;99.90;;;;;;5013323;28;20030;-87
2022/01/22 02:53:13;;;;;;;0.00;0.00;;;0.50;99.90;;;;;;5012162;28;20370;-88
2022/01/22 02:55:40;;;;;;;3.75;1.25;;;0.60;99.90;;;;;;5013875;28;20018;-87
2022/01/22 02:58:08;;;;;;;0.05;0.05;;;0.60;99.90;;;;;;5011598;28;20421;-87
2022/01/22 03:00:35;;;;;;;0.10;0.10;;;0.50;99.90;;;;;;5011683;28;20105;-88
2022/01/22 03:03:01;;;;;;;0.00;0.00;;;0.50;99.90;;;;;;5013277;28;20032;-75
2022/01/22 03:05:27;;;;;;;0.38;0.20;;;0.50;99.90;;;;;;5010324;28;20057;-87
2022/01/22 03:07:56;;;;;;;0.43;0.43;;;0.50;99.90;;;;;;5010824;28;20037;-87
2022/01/22 03:10:25;;;;;;;0.20;0.20;;;0.40;99.90;;;;;;5008444;28;20077;-79
2022/01/22 03:15:36;;;;;;;0.55;0.52;;;0.40;99.90;;;;;;5015055;28;20378;-87
2022/01/22 03:18:15;;;;;;;0.00;0.00;;;0.30;99.90;;;;;;5012681;28;20559;-87
2022/01/22 03:21:05;;;;;;;0.00;0.00;;;0.30;99.90;;;;;;5010219;28;20030;-76
2022/01/22 03:29:04;;;;;;;0.00;0.00;;;0.20;99.90;;;;;;5006852;28;20049;-88
2022/01/22 03:31:29;;;;;;;0.00;0.00;;;0.30;99.90;;;;;;5012809;28;20041;-87
2022/01/22 03:33:56;;;;;;;0.10;0.10;;;0.20;99.90;;;;;;5013304;28;20026;-75
2022/01/22 03:36:23;;;;;;;0.15;0.15;;;0.30;99.90;;;;;;5012634;28;20018;-81
2022/01/22 03:38:50;;;;;;;0.00;0.00;;;0.30;99.90;;;;;;5011582;28;20022;-75
2022/01/22 03:41:16;;;;;;;0.55;0.55;;;0.40;99.90;;;;;;5012742;28;20093;-75
2022/01/22 03:43:43;;;;;;;0.00;0.00;;;0.30;99.90;;;;;;5013644;28;20026;-88
2022/01/22 03:46:09;;;;;;;0.00;0.00;;;0.30;99.90;;;;;;5012704;28;20461;-88
2022/01/22 03:48:35;;;;;;;0.38;0.38;;;0.40;99.90;;;;;;4998270;28;20057;-75
2022/01/22 03:51:01;;;;;;;0.30;0.20;;;0.40;99.90;;;;;;5011073;28;20033;-87
2022/01/22 03:53:28;;;;;;;3.53;0.75;;;0.40;99.90;;;;;;5013269;28;20029;-88
2022/01/22 03:56:04;;;;;;;0.00;0.00;;;0.40;99.90;;;;;;5003334;28;20038;-88
2022/01/22 03:58:42;;;;;;;0.00;0.00;;;0.40;99.90;;;;;;5011065;28;20046;-87
2022/01/22 04:03:52;;;;;;;0.10;0.10;;;0.40;99.90;;;;;;5014663;28;20033;-75
2022/01/22 04:09:09;;;;;;;0.00;0.00;;;0.40;99.90;;;;;;5016535;28;20025;-88
2022/01/22 04:11:40;;;;;;;0.22;0.22;;;0.30;99.90;;;;;;5015664;28;20393;-88
2022/01/22 04:14:13;;;;;;;0.00;0.00;;;0.30;99.90;;;;;;5014913;28;20044;-87
2022/01/22 04:16:46;;;;;;;0.00;0.00;;;0.30;99.90;;;;;;5003517;28;20026;-88
2022/01/22 04:24:50;;;;;;;0.30;0.30;;;0.30;99.90;;;;;;5016156;28;20092;-75
2022/01/22 04:27:22;;;;;;;0.08;0.08;;;0.30;99.90;;;;;;5012166;28;20121;-75
2022/01/22 04:29:47;;;;;;;0.00;0.00;;;0.30;99.90;;;;;;5013927;28;20030;-75
2022/01/22 04:32:14;;;;;;;4.68;1.73;;;0.30;99.90;;;;;;5015803;28;20084;-75
2022/01/22 04:34:40;;;;;;;0.00;0.00;;;0.30;99.90;;;;;;5015851;28;20014;-88
2022/01/22 04:37:06;;;;;;;0.00;0.00;;;0.30;99.90;;;;;;5013844;28;20026;-88
2022/01/22 04:39:32;;;;;;;0.05;0.05;;;0.20;99.90;;;;;;5015526;28;20382;-75
2022/01/22 04:41:59;;;;;;;0.28;0.28;;;0.20;99.90;;;;;;5014955;28;20049;-88
2022/01/22 04:44:28;;;;;;;0.32;0.30;;;0.20;99.90;;;;;;5014003;28;20503;-88
2022/01/22 04:57:18;;;;;;;0.20;0.20;;;0.30;99.90;;;;;;5005391;28;20065;-88
2022/01/22 04:59:45;;;;;;;0.32;0.30;;;0.20;99.90;;;;;;5015136;28;20616;-75
2022/01/22 05:02:12;;;;;;;0.20;0.20;;;0.20;99.90;;;;;;5014624;28;20412;-75
2022/01/22 05:04:38;;;;;;;0.00;0.00;;;0.20;99.90;;;;;;5013673;28;20026;-75
2022/01/22 05:07:04;;;;;;;0.00;0.00;;;0.10;99.90;;;;;;5012959;28;20062;-76
2022/01/22 05:09:33;;;;;;;0.00;0.00;;;0.10;99.90;;;;;;5014766;28;20492;-87
2022/01/22 05:11:59;;;;;;;0.05;0.05;;;0.10;99.90;;;;;;5014682;28;20025;-87
2022/01/22 05:14:25;;;;;;;1.80;1.20;;;0.20;99.90;;;;;;5013997;28;20032;-75
2022/01/22 05:16:54;;;;;;;0.52;0.52;;;0.10;99.90;;;;;;5014953;28;20030;-88
2022/01/22 05:19:28;;;;;;;0.15;0.15;;;0.10;99.90;;;;;;5014909;28;20026;-75
2022/01/22 05:21:59;;;;;;;1.63;0.85;;;0.10;99.90;;;;;;5013223;28;20034;-87
2022/01/22 05:24:29;;;;;;;0.00;0.00;;;0.10;99.90;;;;;;5009429;28;20100;-87
2022/01/22 05:37:27;;;;;;;2.17;0.80;;;0.10;99.90;;;;;;5018179;28;20405;-88
2022/01/22 05:39:52;;;;;;;0.20;0.20;;;0.00;99.90;;;;;;5012987;28;20540;-77
2022/01/22 05:42:18;;;;;;;0.20;0.20;;;0.00;99.90;;;;;;5013976;28;20065;-88
2022/01/22 05:44:44;;;;;;;0.05;0.05;;;0.00;99.90;;;;;;5014188;28;20029;-88
2022/01/22 05:47:12;;;;;;;0.65;0.43;;;0.00;99.90;;;;;;5015925;28;20088;-87
2022/01/22 05:49:41;;;;;;;13.60;2.17;;;0.00;99.90;;;;;;5012736;28;20029;-86
2022/01/22 05:52:10;;;;;;;0.28;0.10;;;0.00;99.90;;;;;;5013533;28;20022;-88
2022/01/22 06:00:22;;;;;;;0.00;0.00;;;-0.20;99.90;;;;;;4916049;29;20039;-76
2022/01/22 06:02:47;;;;;;;0.30;0.30;;;-0.20;99.90;;;;;;4992197;28;20034;-87
2022/01/22 06:05:14;;;;;;;0.03;0.03;;;-0.30;99.90;;;;;;5015260;28;20061;-87
2022/01/22 06:07:39;;;;;;;2.90;1.85;;;-0.40;99.90;;;;;;5013782;28;20108;-75
2022/01/22 06:10:16;;;;;;;0.20;0.20;;;-0.40;99.90;;;;;;5013941;28;20058;-88
2022/01/22 06:15:19;;;;;;;0.40;0.20;;;-0.40;99.90;;;;;;5014367;28;20435;-88
2022/01/22 06:17:45;;;;;;;0.00;0.00;;;-0.40;99.90;;;;;;5012452;28;20034;-87
2022/01/22 06:20:13;;;;;;;0.52;0.20;;;-0.40;99.90;;;;;;5013663;28;20022;-75
2022/01/22 06:22:40;;;;;;;0.50;0.50;;;-0.40;99.90;;;;;;5012357;28;20058;-87
2022/01/22 06:25:07;;;;;;;0.10;0.10;;;-0.40;99.90;;;;;;5002725;28;20033;-88
2022/01/22 06:27:33;;;;;;;0.10;0.10;;;-0.40;99.90;;;;;;5010906;28;20064;-88
2022/01/22 06:29:58;;;;;;;0.05;0.05;;;-0.40;99.90;;;;;;5011889;28;20026;-88
2022/01/22 06:32:25;;;;;;;0.05;0.05;;;-0.50;99.90;;;;;;5013947;28;20029;-85
2022/01/22 06:34:51;;;;;;;0.00;0.00;;;-0.50;99.90;;;;;;5013419;28;20105;-79
2022/01/22 06:37:18;;;;;;;0.00;0.00;;;-0.40;99.90;;;;;;5009304;28;20038;-75
2022/01/22 06:42:36;;;;;;;0.65;0.65;;;-0.50;99.90;;;;;;5001435;28;20552;-75
2022/01/22 06:45:05;;;;;;;0.15;0.15;;;-0.50;99.90;;;;;;5012196;28;20107;-85
2022/01/22 06:47:32;;;;;;;0.10;0.10;;;-0.50;99.90;;;;;;5013144;28;20400;-75
2022/01/22 06:49:58;;;;;;;0.10;0.10;;;-0.50;99.90;;;;;;5013198;28;20401;-88
2022/01/22 06:52:25;;;;;;;0.20;0.20;;;-0.50;99.90;;;;;;5011572;28;20394;-88
2022/01/22 06:54:51;;;;;;;0.63;0.63;;;-0.50;99.90;;;;;;5012263;28;20508;-88
2022/01/22 06:57:17;;;;;;;0.00;0.00;;;-0.50;99.90;;;;;;5012578;28;20137;-88
2022/01/22 06:59:43;;;;;;;0.08;0.08;;;-0.50;99.90;;;;;;5013686;28;20028;-88
2022/01/22 07:02:10;;;;;;;0.40;0.40;;;-0.60;99.90;;;;;;5011540;28;20049;-75
2022/01/22 07:04:37;;;;;;;14.52;2.65;;;-0.60;99.90;;;;;;5012395;28;20081;-75
2022/01/22 07:07:12;;;;;;;1.27;1.17;;;-0.60;99.90;;;;;;5008651;28;20408;-88
2022/01/22 07:09:39;;;;;;;0.52;0.52;;;-0.60;99.90;;;;;;5011667;28;20199;-87
2022/01/22 07:12:06;;;;;;;0.00;0.00;;;-0.60;99.90;;;;;;5011203;28;20034;-88
2022/01/22 07:14:33;;;;;;;0.70;0.45;;;-0.60;99.90;;;;;;5013379;28;20030;-85
2022/01/22 07:16:59;;;;;;;0.20;0.20;;;-0.60;99.90;;;;;;5013408;28;20026;-88
2022/01/22 07:19:27;;;;;;;0.00;0.00;;;-0.60;99.90;;;;;;5012891;28;20410;-76
2022/01/22 07:22:04;;;;;;;0.20;0.20;;;-0.60;99.90;;;;;;5012810;28;20033;-88
2022/01/22 07:24:37;;;;;;;1.48;1.38;;;-0.60;99.90;;;;;;5011955;28;20037;-88
2022/01/22 07:27:04;;;;;;;0.30;0.30;;;-0.60;99.90;;;;;;5011606;28;20049;-75
2022/01/22 07:29:30;;;;;;;0.20;0.20;;;-0.60;99.90;;;;;;5011883;28;20034;-75
2022/01/22 07:32:00;;;;;;;0.43;0.43;;;-0.60;99.90;;;;;;5012638;28;20034;-88
2022/01/22 07:34:26;;;;;;;0.50;0.50;;;-0.60;99.90;;;;;;5002453;28;20022;-88
2022/01/22 07:36:52;;;;;;;1.25;1.17;;;-0.60;99.90;;;;;;5011472;28;20084;-88
2022/01/22 07:39:18;;;;;;;0.10;0.10;;;-0.60;99.90;;;;;;5011513;28;20030;-88
2022/01/22 07:41:44;;;;;;;1.75;1.50;;;-0.60;99.90;;;;;;5016121;28;20029;-88
2022/01/22 07:44:10;;;;;;;0.40;0.40;;;-0.60;99.90;;;;;;5015497;28;20021;-88
2022/01/22 07:46:36;;;;;;;0.30;0.30;;;-0.60;99.90;;;;;;5014705;28;20065;-87
2022/01/22 07:49:05;;;;;;;0.45;0.45;;;-0.60;99.90;;;;;;5017036;28;20033;-88
2022/01/22 07:51:31;;;;;;;0.40;0.40;;;-0.60;99.90;;;;;;5017121;28;20034;-87
2022/01/22 07:53:58;;;;;;;0.40;0.40;;;-0.60;99.90;;;;;;5016398;28;20030;-75
2022/01/22 07:56:24;;;;;;;0.45;0.38;;;-0.50;99.90;;;;;;5013775;28;20406;-88
2022/01/22 07:58:50;;;;;;;0.85;0.85;;;-0.50;99.90;;;;;;5017206;28;20022;-75
2022/01/22 08:01:16;;;;;;;0.10;0.10;;;-0.40;99.90;;;;;;5015980;28;20145;-75
2022/01/22 08:03:53;;;;;;;0.32;0.32;;;-0.40;99.90;;;;;;5015177;28;20029;-75
2022/01/22 08:06:19;;;;;;;0.50;0.50;;;-0.30;99.90;;;;;;5015837;28;20030;-88
2022/01/22 08:08:46;;;;;;;36.72;1.20;;;-0.20;99.90;;;;;;5017721;28;20052;-88
2022/01/22 08:11:12;;;;;;;0.40;0.40;;;-0.20;99.90;;;;;;5014572;28;20022;-88
2022/01/22 08:13:38;;;;;;;0.77;0.77;;;-0.10;99.90;;;;;;5015388;28;20038;-89
2022/01/22 08:16:04;;;;;;;0.63;0.63;;;-0.10;99.90;;;;;;5016788;28;20068;-87
2022/01/22 08:18:30;;;;;;;0.10;0.10;;;0.00;99.90;;;;;;5015788;28;20022;-75
2022/01/22 08:20:56;;;;;;;0.47;0.47;;;0.10;99.90;;;;;;5016255;28;20030;-88
2022/01/22 08:23:23;;;;;;;3.00;1.38;;;0.10;99.90;;;;;;5017468;28;20436;-88
2022/01/22 08:25:49;;;;;;;0.30;0.30;;;0.20;99.90;;;;;;5014877;28;20385;-88
2022/01/22 08:31:16;;;;;;;0.10;0.10;;;0.40;99.90;;;;;;5010464;28;20036;-76
2022/01/22 08:36:27;;;;;;;0.43;0.43;;;0.60;99.90;;;;;;5015326;28;20029;-75
2022/01/22 08:38:53;;;;;;;0.43;0.43;;;0.70;99.90;;;;;;5012348;28;20423;-76
2022/01/22 08:41:20;;;;;;;0.10;0.10;;;0.80;99.90;;;;;;4996992;28;20050;-75
2022/01/22 08:43:46;;;;;;;0.22;0.22;;;0.90;99.90;;;;;;5000436;28;20432;-88
2022/01/22 08:46:13;;;;;;;7.10;0.90;;;1.20;99.90;;;;;;5014923;28;20018;-75
2022/01/22 08:48:38;;;;;;;0.10;0.10;;;1.60;99.90;;;;;;5015133;28;20022;-75
2022/01/22 08:51:06;;;;;;;1.95;1.45;;;1.60;99.90;;;;;;5015603;28;20541;-76
2022/01/22 08:53:32;;;;;;;0.32;0.32;;;1.60;99.90;;;;;;5012579;28;20053;-76
2022/01/22 08:56:00;;;;;;;0.25;0.25;;;1.60;99.90;;;;;;5013714;28;20069;-87
2022/01/22 08:58:27;;;;;;;0.05;0.05;;;1.60;99.90;;;;;;5012207;28;20042;-76
2022/01/22 09:00:52;;;;;;;0.15;0.15;;;1.70;99.90;;;;;;5014919;28;20037;-75
2022/01/22 09:03:20;;;;;;;0.30;0.30;;;1.70;99.90;;;;;;5014832;28;20456;-75
2022/01/22 09:05:47;;;;;;;0.32;0.32;;;1.70;99.90;;;;;;5007745;28;20034;-88
2022/01/22 09:08:15;;;;;;;0.00;0.00;;;1.80;99.90;;;;;;5014592;28;20041;-75
2022/01/22 09:10:43;;;;;;;1.27;1.05;;;1.80;99.90;;;;;;5013898;28;20068;-75
2022/01/22 09:13:10;;;;;;;0.55;0.55;;;1.90;99.90;;;;;;5011924;28;20030;-75
2022/01/22 09:15:37;;;;;;;0.25;0.25;;;1.90;99.90;;;;;;5013536;28;20397;-76
2022/01/22 09:18:06;;;;;;;0.00;0.00;;;2.00;99.90;;;;;;5014610;28;20018;-75
2022/01/22 09:21:16;;;;;;;0.20;0.20;;;2.10;99.90;;;;;;5013273;28;20109;-75
2022/01/22 09:23:18;;;;;;;2.90;0.82;;;2.20;99.90;;;;;;4990857;28;20038;-75
2022/01/22 09:25:46;;;;;;;0.10;0.10;;;2.30;99.90;;;;;;5016205;28;20022;-75
2022/01/22 09:28:14;;;;;;;0.93;0.52;;;2.30;99.90;;;;;;5014678;28;20519;-75
2022/01/22 09:30:42;;;;;;;0.52;0.52;;;2.40;99.90;;;;;;5001502;28;20030;-75
2022/01/22 09:33:08;;;;;;;0.65;0.50;;;2.50;99.90;;;;;;5014419;28;20026;-75
2022/01/22 09:35:34;;;;;;;0.45;0.45;;;2.60;99.90;;;;;;5012337;28;20465;-88
2022/01/22 09:38:01;;;;;;;5.93;1.00;;;2.60;99.90;;;;;;5010188;28;20026;-88
2022/01/22 09:40:29;;;;;;;0.05;0.05;;;2.70;99.90;;;;;;5014163;28;20014;-76
2022/01/22 09:42:56;;;;;;;0.08;0.08;;;2.70;99.90;;;;;;5013241;28;20037;-76
2022/01/22 09:45:23;;;;;;;0.00;0.00;;;2.80;99.90;;;;;;5012679;28;20061;-75
2022/01/22 09:47:51;;;;;;;0.00;0.00;;;3.00;99.90;;;;;;5003004;28;20034;-88
2022/01/22 09:50:20;;;;;;;0.73;0.50;;;3.00;99.90;;;;;;5012672;28;20053;-75
2022/01/22 09:52:47;;;;;;;2.92;0.35;;;3.10;99.90;;;;;;5012188;28;20401;-88
2022/01/22 09:55:13;;;;;;;1.02;0.88;;;3.20;99.90;;;;;;5015036;28;20045;-76
2022/01/22 09:57:39;;;;;;;0.00;0.00;;;3.30;99.90;;;;;;5011869;28;20096;-75
2022/01/22 10:00:07;;;;;;;0.35;0.10;;;3.40;99.90;;;;;;5014693;28;20041;-88
2022/01/22 10:02:40;;;;;;;0.20;0.20;;;3.50;99.90;;;;;;5013855;28;20580;-77
2022/01/22 10:05:31;;;;;;;0.25;0.25;;;3.60;99.90;;;;;;5013190;28;20029;-76
2022/01/22 10:08:16;;;;;;;1.30;1.08;;;3.60;99.90;;;;;;5010899;28;20033;-88
2022/01/22 10:10:42;;;;;;;2.35;1.80;;;3.70;99.90;;;;;;5012261;28;20022;-75
2022/01/22 10:13:08;;;;;;;0.40;0.40;;;3.80;99.90;;;;;;5012163;28;20452;-75
2022/01/22 10:15:35;;;;;;;0.08;0.08;;;3.80;99.90;;;;;;5013463;28;20022;-75
2022/01/22 10:18:03;;;;;;;1.08;0.95;;;4.00;99.90;;;;;;5013478;28;20053;-75
2022/01/22 10:20:32;;;;;;;0.43;0.43;;;4.10;99.90;;;;;;5014086;28;20014;-88
2022/01/22 10:23:04;;;;;;;0.15;0.15;;;4.30;99.90;;;;;;5011299;28;20034;-87
2022/01/22 10:25:43;;;;;;;0.10;0.10;;;4.30;99.90;;;;;;5012209;28;20104;-75
2022/01/22 10:28:22;;;;;;;0.55;0.50;;;4.30;99.90;;;;;;5027341;28;20034;-75
2022/01/22 10:30:57;;;;;;;0.35;0.35;;;4.50;99.90;;;;;;5012407;28;20030;-87
2022/01/22 10:33:30;;;;;;;0.70;0.55;;;4.60;99.90;;;;;;5012320;28;20045;-75
2022/01/22 10:36:19;;;;;;;0.10;0.10;;;4.70;99.90;;;;;;5011703;28;20121;-88
2022/01/22 10:38:47;;;;;;;29.80;0.70;;;4.80;99.90;;;;;;5008208;28;20025;-87
2022/01/22 10:41:16;;;;;;;0.00;0.00;;;4.80;99.90;;;;;;5014000;28;20026;-75
2022/01/22 10:43:55;;;;;;;0.00;0.00;;;5.00;99.90;;;;;;5009575;28;20105;-75
2022/01/22 10:46:42;;;;;;;0.00;0.00;;;5.10;99.90;;;;;;5003927;28;20120;-84
2022/01/22 10:49:22;;;;;;;0.28;0.28;;;5.00;99.90;;;;;;5018420;28;20120;-75
2022/01/22 10:52:03;;;;;;;0.05;0.05;;;5.10;99.90;;;;;;5013484;28;20028;-88
2022/01/22 10:54:35;;;;;;;0.35;0.35;;;5.40;99.90;;;;;;5011536;28;20552;-75
2022/01/22 10:57:25;;;;;;;0.17;0.17;;;5.40;99.90;;;;;;5012101;28;20401;-75
2022/01/22 10:59:55;;;;;;;0.00;0.00;;;5.50;99.90;;;;;;5012687;28;20041;-76
2022/01/22 11:02:31;;;;;;;1.15;1.00;;;5.70;99.90;;;;;;5014017;28;20042;-86
2022/01/22 11:04:57;;;;;;;4.00;1.55;;;5.60;99.90;;;;;;5012874;28;20032;-87
2022/01/22 11:07:24;;;;;;;0.22;0.22;;;5.60;99.90;;;;;;5011469;28;20496;-87
2022/01/22 11:09:50;;;;;;;0.10;0.10;;;5.80;99.90;;;;;;5007911;28;20041;-87
2022/01/22 11:12:16;;;;;;;0.52;0.13;;;5.70;99.90;;;;;;5001646;28;20027;-75
2022/01/22 11:14:44;;;;;;;0.20;0.20;;;5.70;99.90;;;;;;5012210;28;20034;-75
2022/01/22 11:17:12;;;;;;;0.38;0.25;;;5.80;99.90;;;;;;5015983;28;20025;-88
2022/01/22 11:19:39;;;;;;;1.45;0.75;;;5.90;99.90;;;;;;5004803;28;20044;-75
2022/01/22 11:22:12;;;;;;;0.05;0.05;;;5.90;99.90;;;;;;5017148;28;20117;-75
2022/01/22 11:24:42;;;;;;;;;;;6.20;99.90;;;;;;5016923;28;20105;-75
2022/01/22 11:27:10;;;;;;;0.98;0.20;;;6.20;99.90;;;;;;5016791;28;19905;-75
2022/01/22 11:29:39;;;;;;;0.05;0.05;;;6.20;99.90;;;;;;5009774;28;20496;-87
2022/01/22 11:32:10;;;;;;;0.30;0.30;;;6.30;99.90;;;;;;5018375;28;20516;-88
2022/01/22 11:34:37;;;;;;;1.55;0.75;;;6.50;99.90;;;;;;5015718;28;20366;-75
2022/01/22 11:37:29;;;;;;;2.08;1.88;;;6.60;99.90;;;;;;5011381;28;20563;-75
2022/01/22 11:40:14;;;;;;;0.30;0.20;;;6.80;99.90;;;;;;5016378;28;20536;-87
2022/01/22 11:43:12;;;;;;;0.08;0.08;;;6.90;99.90;;;;;;5005931;28;20527;-75
2022/01/22 11:45:42;;;;;;;0.30;0.20;;;6.90;99.90;;;;;;5015048;28;20109;-75
2022/01/22 11:48:14;;;;;;;1.17;0.90;;;7.00;99.90;;;;;;5016062;28;20032;-75
2022/01/22 11:50:42;;;;;;;0.38;0.32;;;7.00;99.90;;;;;;5004624;28;20084;-74
2022/01/22 11:53:37;;;;;;;0.38;0.20;;;7.20;99.90;;;;;;5013850;28;20460;-76
2022/01/22 11:56:16;;;;;;;0.88;0.82;;;7.30;99.90;;;;;;5014685;28;20037;-87
2022/01/22 11:59:04;;;;;;;0.25;0.13;;;7.60;99.90;;;;;;5014282;28;20124;-76
2022/01/22 12:04:21;;;;;;;0.00;0.00;;;7.80;99.90;;;;;;5015703;28;20416;-75
2022/01/22 12:07:02;;;;;;;0.00;0.00;;;7.70;99.90;;;;;;5015325;28;20033;-75
2022/01/22 12:09:36;;;;;;;0.00;0.00;;;7.70;99.90;;;;;;5015825;28;20091;-77
2022/01/22 12:15:17;;;;;;;1.85;0.20;;;7.50;99.90;;;;;;5006494;28;20080;-75
2022/01/22 12:17:58;;;;;;;0.00;0.00;;;7.20;99.90;;;;;;5015651;28;20508;-75
2022/01/22 12:23:13;;;;;;;0.90;0.35;;;7.20;99.90;;;;;;5015349;28;20129;-77
2022/01/22 12:25:40;;;;;;;0.00;0.00;;;7.30;99.90;;;;;;5014335;28;20065;-85
2022/01/22 12:28:13;;;;;;;0.10;0.10;;;7.30;99.90;;;;;;5004196;28;20485;-76
2022/01/22 12:30:42;;;;;;;0.00;0.00;;;7.20;99.90;;;;;;5015582;28;20408;-87
2022/01/22 12:33:13;;;;;;;0.00;0.00;;;7.20;99.90;;;;;;5015845;28;20068;-88
2022/01/22 12:35:43;;;;;;;0.00;0.00;;;7.00;99.90;;;;;;5013637;28;20014;-75
2022/01/22 12:38:43;;;;;;;0.00;0.00;;;7.00;99.90;;;;;;5011531;28;20067;-75
2022/01/22 12:41:30;;;;;;;0.98;0.30;;;7.00;99.90;;;;;;5003852;28;20026;-75
2022/01/22 12:44:26;;;;;;;0.00;0.00;;;6.90;99.90;;;;;;5014131;28;20109;-75
2022/01/22 12:46:55;;;;;;;5.28;1.77;;;6.80;99.90;;;;;;5011527;28;20026;-87
2022/01/22 12:49:24;;;;;;;0.40;0.30;;;6.70;99.90;;;;;;5006604;28;20029;-75
2022/01/22 12:52:03;;;;;;;0.10;0.10;;;6.70;99.90;;;;;;5012517;28;20161;-87
2022/01/22 12:54:44;;;;;;;0.00;0.00;;;6.70;99.90;;;;;;5007115;28;20029;-75
2022/01/22 12:57:14;;;;;;;0.05;0.05;;;6.80;99.90;;;;;;5015062;28;20046;-75
2022/01/22 13:00:18;;;;;;;0.00;0.00;;;6.80;99.90;;;;;;5012983;28;20044;-75
2022/01/22 13:02:51;;;;;;;0.43;0.28;;;6.70;99.90;;;;;;5014222;28;20049;-75
2022/01/22 13:05:18;;;;;;;0.00;0.00;;;6.60;99.90;;;;;;5013634;28;20064;-76
2022/01/22 13:07:53;;;;;;;0.08;0.08;;;6.70;99.90;;;;;;5014828;28;20061;-86
2022/01/22 13:10:22;;;;;;;0.43;0.43;;;6.70;99.90;;;;;;5014916;28;20025;-75
2022/01/22 13:12:48;;;;;;;0.43;0.13;;;6.80;99.90;;;;;;5013857;28;20038;-75
2022/01/22 13:15:18;;;;;;;0.03;0.03;;;6.80;99.90;;;;;;5012909;28;20042;-86
2022/01/22 13:17:51;;;;;;;0.05;0.05;;;6.70;99.90;;;;;;5013296;28;20072;-86
2022/01/22 13:20:32;;;;;;;0.57;0.57;;;6.60;99.90;;;;;;5013283;28;20050;-75
2022/01/22 13:23:02;;;;;;;0.22;0.22;;;6.80;99.90;;;;;;5012470;28;20125;-75
2022/01/22 13:25:28;;;;;;;0.00;0.00;;;6.70;99.90;;;;;;5013307;28;20026;-75
2022/01/22 13:28:04;;;;;;;0.35;0.35;;;6.80;99.90;;;;;;5013212;28;20030;-75
2022/01/22 13:30:36;;;;;;;0.00;0.00;;;6.70;99.90;;;;;;5014261;28;20548;-87
2022/01/22 13:33:31;;;;;;;0.00;0.00;;;6.80;99.90;;;;;;5014438;28;20478;-87
2022/01/22 13:36:11;;;;;;;1.38;0.32;;;6.80;99.90;;;;;;5012383;28;20022;-87
2022/01/22 13:49:28;;;;;;;0.03;0.03;;;7.10;99.90;;;;;;5005850;28;20558;-75
2022/01/22 13:51:58;;;;;;;4.68;0.90;;;7.10;99.90;;;;;;5013444;28;20026;-87
2022/01/22 13:54:31;;;;;;;0.08;0.08;;;7.10;99.90;;;;;;5013891;28;20091;-75
2022/01/22 13:57:03;;;;;;;0.00;0.00;;;7.10;99.90;;;;;;5003024;28;20042;-75
2022/01/22 13:59:35;;;;;;;1.45;1.02;;;7.10;99.90;;;;;;5013109;28;20030;-88
2022/01/22 14:04:55;;;;;;;0.20;0.20;;;6.90;99.90;;;;;;5013816;28;20497;-75
2022/01/22 14:07:57;;;;;;;0.00;0.00;;;6.80;99.90;;;;;;5011758;28;20030;-86
2022/01/22 14:10:25;;;;;;;0.10;0.10;;;6.80;99.90;;;;;;4992368;28;20523;-75
2022/01/22 14:13:06;;;;;;;0.08;0.08;;;6.80;99.90;;;;;;5013532;28;20030;-75
2022/01/22 14:15:42;;;;;;;0.20;0.20;;;6.80;99.90;;;;;;5012928;28;20034;-75
2022/01/22 14:18:22;;;;;;;0.00;0.00;;;6.70;99.90;;;;;;5027954;28;20104;-75
2022/01/22 14:20:53;;;;;;;0.00;0.00;;;6.80;99.90;;;;;;5012531;28;20033;-75
2022/01/22 14:23:23;;;;;;;0.63;0.63;;;6.80;99.90;;;;;;5013593;28;20036;-75
2022/01/22 14:25:59;;;;;;;21.83;0.45;;;6.80;99.90;;;;;;5012147;28;20026;-87
2022/01/22 14:28:48;;;;;;;0.00;0.00;;;6.80;99.90;;;;;;5003846;28;20034;-75
2022/01/22 14:31:30;;;;;;;0.00;0.00;;;6.80;99.90;;;;;;5001827;28;20109;-76
2022/01/22 14:34:01;;;;;;;0.10;0.10;;;6.80;99.90;;;;;;5013734;28;20026;-87
2022/01/22 14:36:30;;;;;;;0.13;0.13;;;6.80;99.90;;;;;;5013106;28;20026;-75
2022/01/22 14:39:13;;;;;;;0.20;0.15;;;6.80;99.90;;;;;;5013381;28;20032;-75
2022/01/22 14:45:06;;;;;;;0.00;0.00;;;6.90;99.90;;;;;;5013890;28;20081;-75
2022/01/22 14:47:32;;;;;;;0.10;0.10;;;7.00;99.90;;;;;;5000584;28;20022;-75
2022/01/22 14:50:10;;;;;;;1.55;0.75;;;7.30;99.90;;;;;;5012962;28;20028;-87
2022/01/22 14:52:37;;;;;;;0.00;0.00;;;7.30;99.90;;;;;;5012308;28;20041;-75
2022/01/22 14:55:08;;;;;;;0.00;0.00;;;7.30;99.90;;;;;;5011277;28;20497;-75
2022/01/22 14:57:36;;;;;;;0.00;0.00;;;7.40;99.90;;;;;;5012899;28;20064;-75
2022/01/22 15:00:07;;;;;;;1.38;0.98;;;7.60;99.90;;;;;;5011631;28;20020;-85
2022/01/22 15:02:34;;;;;;;0.10;0.10;;;7.50;99.90;;;;;;5012585;28;20044;-75
2022/01/22 15:05:00;;;;;;;0.00;0.00;;;7.30;99.90;;;;;;5000212;28;20072;-87
2022/01/22 15:07:26;;;;;;;0.00;0.00;;;7.00;99.90;;;;;;5013178;28;20033;-86
2022/01/22 15:09:52;;;;;;;2.17;0.98;;;6.70;99.90;;;;;;5014662;28;20036;-85
2022/01/22 15:12:18;;;;;;;0.15;0.15;;;6.70;99.90;;;;;;5012549;28;20107;-75
2022/01/22 15:14:47;;;;;;;0.00;0.00;;;6.70;99.90;;;;;;5011191;28;20037;-75